Time;durP1;ratioP1;P1;durP2;ratioP2;P2;SDS_P1;SDS_P2;PMS_P1;PMS_P2;Temp;Humidity;BMP_temperature;BMP_pressure;BME280_temperature;BME280_humidity;BME280_pressure;Samples;Min_cycle;Max_cycle;Signal;HPM_P1;HPM_P2
2023/12/12 06:02:25;;;;;;;7.68;3.05;;;7.00;86.80;;;;;;4067202;29;20056;-77
2023/12/12 06:04:28;;;;;;;9.93;3.10;;;6.90;87.40;;;;;;4068648;29;20044;-76
2023/12/12 06:06:30;;;;;;;8.68;3.50;;;6.80;87.50;;;;;;4068682;29;20419;-78
2023/12/12 06:08:31;;;;;;;8.40;3.25;;;6.80;87.60;;;;;;4071520;29;20104;-78
2023/12/12 06:10:33;;;;;;;7.50;2.65;;;6.80;88.20;;;;;;4071827;29;20080;-77
2023/12/12 06:12:35;;;;;;;7.07;2.80;;;6.80;88.30;;;;;;4071815;29;20115;-79
2023/12/12 06:14:36;;;;;;;8.52;3.40;;;6.80;88.40;;;;;;4071738;29;20446;-79
2023/12/12 06:16:38;;;;;;;6.82;2.65;;;6.80;88.20;;;;;;4071796;29;20052;-75
2023/12/12 06:18:41;;;;;;;9.38;2.78;;;6.80;88.10;;;;;;4071624;29;20518;-79
2023/12/12 06:20:43;;;;;;;8.95;2.78;;;6.90;88.00;;;;;;4071571;29;20107;-79
2023/12/12 06:22:45;;;;;;;6.35;2.22;;;6.90;87.90;;;;;;4071682;29;20099;-78
2023/12/12 06:24:46;;;;;;;7.30;2.50;;;7.00;87.60;;;;;;4071498;29;20047;-77
2023/12/12 06:26:48;;;;;;;7.00;2.58;;;7.10;87.20;;;;;;4071592;29;20501;-79
2023/12/12 06:28:50;;;;;;;10.60;3.10;;;7.10;86.60;;;;;;4071482;29;20056;-80
2023/12/12 06:30:51;;;;;;;8.70;3.42;;;7.20;86.60;;;;;;4071638;29;20576;-78
2023/12/12 06:32:55;;;;;;;7.05;2.70;;;7.20;86.30;;;;;;4071532;29;20044;-79
2023/12/12 06:34:59;;;;;;;7.60;3.03;;;7.20;86.40;;;;;;4071333;29;20493;-79
2023/12/12 06:37:01;;;;;;;7.03;2.90;;;7.20;86.30;;;;;;4071408;29;20048;-79
2023/12/12 06:39:03;;;;;;;6.35;3.00;;;7.20;86.20;;;;;;4071186;29;20485;-79
2023/12/12 06:41:05;;;;;;;9.57;3.38;;;7.20;86.20;;;;;;4071420;29;20052;-77
2023/12/12 06:43:06;;;;;;;7.07;3.10;;;7.10;86.30;;;;;;4071217;29;20056;-78
2023/12/12 06:45:10;;;;;;;7.22;3.10;;;7.10;86.50;;;;;;4071161;29;20470;-80
2023/12/12 06:47:11;;;;;;;6.95;3.05;;;7.10;86.60;;;;;;4071376;29;20052;-79
2023/12/12 06:49:13;;;;;;;10.98;3.22;;;7.10;86.50;;;;;;4071600;29;20104;-78
2023/12/12 06:51:16;;;;;;;7.60;2.83;;;7.20;86.50;;;;;;4071168;29;20107;-77
2023/12/12 06:53:18;;;;;;;8.60;2.85;;;7.10;86.20;;;;;;4071307;29;20055;-78
2023/12/12 06:55:20;;;;;;;8.85;2.95;;;7.10;86.40;;;;;;4071301;29;20138;-79
2023/12/12 06:57:22;;;;;;;7.63;3.08;;;7.20;86.40;;;;;;4070983;29;20052;-79
2023/12/12 06:59:24;;;;;;;7.63;3.40;;;7.20;86.30;;;;;;4071125;29;20053;-78
2023/12/12 07:01:26;;;;;;;13.02;4.05;;;7.20;86.30;;;;;;4070965;29;20063;-78
2023/12/12 07:03:28;;;;;;;10.00;3.78;;;7.20;86.10;;;;;;4071127;29;20474;-79
2023/12/12 07:05:30;;;;;;;10.32;4.18;;;7.20;85.60;;;;;;4071066;29;20052;-77
2023/12/12 07:07:33;;;;;;;10.25;3.70;;;7.30;85.70;;;;;;4071094;29;20052;-79
2023/12/12 07:09:35;;;;;;;10.48;3.80;;;7.30;85.60;;;;;;4070931;29;20143;-78
2023/12/12 07:11:37;;;;;;;8.70;3.40;;;7.30;85.60;;;;;;4070883;29;20091;-79
2023/12/12 07:13:39;;;;;;;9.43;3.40;;;7.30;85.50;;;;;;4070809;29;20127;-78
2023/12/12 07:15:41;;;;;;;11.35;3.60;;;7.30;85.30;;;;;;4070971;29;20052;-78
2023/12/12 07:17:43;;;;;;;9.35;3.78;;;7.30;85.30;;;;;;4070889;29;20060;-78
2023/12/12 07:19:44;;;;;;;8.20;3.30;;;7.20;85.50;;;;;;4069615;29;20104;-76
2023/12/12 07:21:46;;;;;;;9.90;3.38;;;7.10;86.00;;;;;;4070505;29;20135;-78
2023/12/12 07:23:51;;;;;;;6.47;2.88;;;7.00;86.20;;;;;;4070663;29;20127;-79
2023/12/12 07:25:53;;;;;;;10.13;3.28;;;7.00;86.50;;;;;;4055080;29;20048;-78
2023/12/12 07:27:55;;;;;;;5.65;2.58;;;6.90;86.70;;;;;;4055107;29;20060;-78
2023/12/12 07:29:57;;;;;;;8.05;3.05;;;6.90;87.40;;;;;;4064182;29;20486;-79
2023/12/12 07:31:58;;;;;;;8.52;3.58;;;6.90;87.40;;;;;;4070700;29;20056;-79
2023/12/12 07:33:59;;;;;;;11.65;4.15;;;6.70;87.80;;;;;;4070772;29;20545;-78
2023/12/12 07:36:02;;;;;;;8.98;3.75;;;6.70;88.00;;;;;;4070671;29;20107;-80
2023/12/12 07:38:04;;;;;;;9.50;4.18;;;6.70;88.00;;;;;;4070528;29;20090;-79
2023/12/12 07:40:08;;;;;;;8.45;3.60;;;6.80;87.70;;;;;;4070359;29;20462;-80
2023/12/12 07:42:10;;;;;;;8.93;3.75;;;6.90;87.80;;;;;;4070297;29;20103;-78
2023/12/12 07:44:12;;;;;;;6.93;3.65;;;6.80;87.90;;;;;;4070664;29;20455;-79
2023/12/12 07:46:14;;;;;;;13.13;4.68;;;6.80;88.20;;;;;;4070592;29;20482;-78
2023/12/12 07:48:18;;;;;;;7.25;3.00;;;6.70;88.20;;;;;;4070622;29;20099;-79
2023/12/12 07:50:20;;;;;;;10.07;3.45;;;6.70;88.70;;;;;;4070473;29;20395;-79
2023/12/12 07:52:22;;;;;;;9.93;3.60;;;6.80;88.50;;;;;;4070466;29;20544;-79
2023/12/12 07:54:24;;;;;;;10.80;3.90;;;6.90;88.30;;;;;;4070381;29;20103;-78
2023/12/12 07:56:27;;;;;;;8.48;3.47;;;6.90;88.40;;;;;;4070714;29;20552;-76
2023/12/12 07:58:29;;;;;;;9.02;3.35;;;6.90;88.40;;;;;;4070739;29;20118;-80
2023/12/12 08:00:31;;;;;;;9.80;3.63;;;7.00;88.00;;;;;;4070242;29;20048;-76
2023/12/12 08:02:32;;;;;;;10.63;3.33;;;7.00;87.80;;;;;;4070570;29;20112;-77
2023/12/12 08:04:35;;;;;;;7.45;3.25;;;7.10;87.50;;;;;;4070666;29;20099;-78
2023/12/12 08:06:37;;;;;;;9.40;3.20;;;7.10;87.30;;;;;;4070609;29;20148;-77
2023/12/12 08:08:39;;;;;;;7.72;3.28;;;7.20;87.10;;;;;;4070333;29;20107;-79
2023/12/12 08:10:41;;;;;;;9.50;3.40;;;7.20;87.20;;;;;;4070518;29;20457;-77
2023/12/12 08:12:44;;;;;;;7.82;3.22;;;7.10;87.70;;;;;;4070930;29;20494;-79
2023/12/12 08:14:47;;;;;;;7.05;3.20;;;7.20;87.80;;;;;;4070628;29;20099;-78
2023/12/12 08:16:49;;;;;;;6.47;2.80;;;7.20;87.50;;;;;;4070441;29;20048;-77
2023/12/12 08:18:51;;;;;;;6.95;3.00;;;7.20;87.40;;;;;;4070367;29;20044;-78
2023/12/12 08:20:51;;;;;;;8.73;3.03;;;7.30;87.40;;;;;;4070444;29;20059;-78
2023/12/12 08:22:53;;;;;;;7.30;3.00;;;7.30;87.10;;;;;;4070273;29;20072;-77
2023/12/12 08:24:56;;;;;;;10.38;3.38;;;7.30;86.80;;;;;;4070289;29;20116;-78
2023/12/12 08:26:57;;;;;;;8.02;3.33;;;7.30;86.80;;;;;;4070842;29;20059;-77
2023/12/12 08:29:01;;;;;;;9.20;3.40;;;7.40;86.80;;;;;;4070841;29;20052;-77
2023/12/12 08:31:03;;;;;;;8.57;3.70;;;7.40;86.80;;;;;;4070219;29;20395;-79
2023/12/12 08:33:05;;;;;;;10.23;3.28;;;7.40;87.10;;;;;;4070631;29;20044;-79
2023/12/12 08:35:07;;;;;;;7.65;3.50;;;7.40;87.00;;;;;;4070594;29;20455;-79
2023/12/12 08:37:08;;;;;;;8.55;3.45;;;7.40;87.30;;;;;;4070002;29;20052;-77
2023/12/12 08:39:11;;;;;;;9.45;3.80;;;7.30;87.70;;;;;;4070313;29;20080;-78
2023/12/12 08:41:12;;;;;;;10.35;4.10;;;7.40;88.40;;;;;;4070477;29;20052;-75
2023/12/12 08:43:13;;;;;;;8.02;3.78;;;7.40;87.80;;;;;;4070797;29;20058;-77
2023/12/12 08:45:17;;;;;;;11.63;4.15;;;7.40;87.50;;;;;;4069915;29;20048;-75
2023/12/12 08:47:19;;;;;;;8.52;3.60;;;7.50;87.30;;;;;;4070124;29;20055;-77
2023/12/12 08:49:19;;;;;;;10.80;4.57;;;7.50;86.90;;;;;;4070217;29;20100;-77
2023/12/12 08:51:22;;;;;;;13.32;6.47;;;7.50;87.00;;;;;;4070145;29;20055;-79
2023/12/12 08:53:26;;;;;;;10.35;4.40;;;7.60;87.00;;;;;;4070706;29;20458;-78
2023/12/12 08:55:28;;;;;;;7.90;3.70;;;7.60;86.70;;;;;;4070053;29;20462;-78
2023/12/12 08:57:30;;;;;;;9.23;3.80;;;7.70;86.70;;;;;;4069594;29;20040;-78
2023/12/12 08:59:32;;;;;;;8.20;4.03;;;7.60;86.80;;;;;;4069152;29;20099;-76
2023/12/12 09:01:35;;;;;;;8.18;3.47;;;7.60;86.80;;;;;;4069811;29;20064;-77
2023/12/12 09:03:36;;;;;;;9.80;3.80;;;7.70;86.40;;;;;;4069411;29;20062;-80
2023/12/12 09:05:38;;;;;;;8.85;3.50;;;7.70;86.50;;;;;;4069021;29;20230;-76
2023/12/12 09:07:40;;;;;;;9.52;3.50;;;7.70;86.00;;;;;;4069301;29;20086;-77
2023/12/12 09:09:42;;;;;;;8.98;3.63;;;7.70;85.80;;;;;;4069106;29;20055;-76
2023/12/12 09:11:46;;;;;;;6.43;2.80;;;7.70;86.20;;;;;;4069316;29;20048;-79
2023/12/12 09:13:48;;;;;;;7.63;2.67;;;7.70;85.50;;;;;;4069002;29;20091;-78
2023/12/12 09:15:50;;;;;;;6.63;3.13;;;7.70;85.90;;;;;;4069351;29;20103;-80
2023/12/12 09:17:53;;;;;;;8.55;2.97;;;7.70;85.80;;;;;;4069229;29;20127;-77
2023/12/12 09:19:55;;;;;;;7.53;3.10;;;7.70;85.90;;;;;;4069133;29;20056;-78
2023/12/12 09:21:57;;;;;;;8.63;3.10;;;7.70;85.70;;;;;;4069236;29;20443;-80
2023/12/12 09:23:59;;;;;;;8.82;3.42;;;7.70;85.60;;;;;;4069191;29;20410;-77
2023/12/12 09:26:00;;;;;;;7.40;3.80;;;7.60;85.80;;;;;;4069082;29;20076;-76
2023/12/12 09:28:02;;;;;;;8.18;3.53;;;7.60;87.00;;;;;;4069483;29;20064;-77
2023/12/12 09:30:04;;;;;;;9.50;3.95;;;7.60;87.10;;;;;;4069022;29;20147;-77
2023/12/12 09:32:07;;;;;;;8.70;3.80;;;7.50;87.80;;;;;;4068994;29;20107;-79
2023/12/12 09:34:10;;;;;;;10.73;4.00;;;7.50;88.70;;;;;;4068982;29;20138;-79
2023/12/12 09:36:12;;;;;;;8.98;3.97;;;7.50;89.00;;;;;;4069138;29;20103;-79
2023/12/12 09:38:13;;;;;;;10.05;3.83;;;7.40;89.70;;;;;;4068987;29;20534;-79
2023/12/12 09:40:15;;;;;;;7.50;3.55;;;7.40;90.00;;;;;;4068703;29;20048;-77
2023/12/12 09:42:21;;;;;;;32.50;17.98;;;7.50;89.70;;;;;;4068396;29;20104;-78
2023/12/12 09:44:23;;;;;;;25.63;12.70;;;7.60;89.60;;;;;;4068918;29;20096;-79
2023/12/12 09:46:29;;;;;;;33.78;16.67;;;7.60;89.20;;;;;;4067741;29;20107;-79
2023/12/12 09:48:31;;;;;;;18.25;7.80;;;7.70;89.30;;;;;;4066718;29;20076;-78
2023/12/12 09:50:36;;;;;;;16.02;6.05;;;7.70;89.10;;;;;;4067051;29;20482;-78
2023/12/12 09:52:39;;;;;;;8.85;4.32;;;7.80;89.10;;;;;;4066736;29;20052;-78
2023/12/12 09:54:42;;;;;;;9.75;3.80;;;7.80;89.80;;;;;;4066733;29;20123;-79
2023/12/12 09:56:45;;;;;;;11.43;3.60;;;7.80;90.30;;;;;;4066825;29;20060;-78
2023/12/12 09:58:49;;;;;;;13.13;4.18;;;7.80;90.40;;;;;;4066854;29;20059;-78
2023/12/12 10:00:51;;;;;;;8.60;3.28;;;7.80;90.30;;;;;;4066702;29;20115;-80
2023/12/12 10:02:58;;;;;;;10.02;3.25;;;7.90;90.50;;;;;;4067076;29;20143;-80
2023/12/12 10:05:01;;;;;;;9.38;3.13;;;7.90;90.50;;;;;;4066990;29;20064;-78
2023/12/12 10:07:07;;;;;;;9.77;3.53;;;8.00;90.60;;;;;;4066801;29;20044;-77
2023/12/12 10:09:10;;;;;;;11.10;3.58;;;8.00;90.50;;;;;;4067068;29;20052;-78
2023/12/12 10:11:12;;;;;;;12.48;4.10;;;8.00;90.60;;;;;;4066590;29;20079;-79
2023/12/12 10:13:13;;;;;;;9.93;4.03;;;8.00;90.60;;;;;;4066953;29;20061;-77
2023/12/12 10:15:23;;;;;;;8.50;4.28;;;8.00;90.60;;;;;;4066782;29;20058;-81
2023/12/12 10:17:26;;;;;;;8.75;4.40;;;8.00;91.00;;;;;;4066926;29;20098;-77
2023/12/12 10:19:28;;;;;;;31.30;15.65;;;7.90;91.40;;;;;;4066974;29;20059;-79
2023/12/12 10:21:31;;;;;;;23.23;13.13;;;7.90;91.70;;;;;;4066624;29;20056;-77
2023/12/12 10:23:43;;;;;;;15.52;7.15;;;8.00;91.50;;;;;;4066754;29;20104;-77
2023/12/12 10:25:49;;;;;;;11.13;5.20;;;8.00;91.40;;;;;;4066914;29;20083;-78
2023/12/12 10:27:52;;;;;;;7.43;3.72;;;8.00;91.70;;;;;;4066901;29;20402;-78
2023/12/12 10:29:55;;;;;;;8.40;3.75;;;8.00;92.30;;;;;;4066694;29;20085;-77
2023/12/12 10:31:59;;;;;;;9.75;4.10;;;8.00;92.70;;;;;;4067309;29;20060;-76
2023/12/12 10:34:03;;;;;;;9.98;4.00;;;8.00;93.00;;;;;;4065270;29;20474;-77
2023/12/12 10:36:09;;;;;;;10.63;4.53;;;8.00;93.10;;;;;;4067449;29;20064;-80
2023/12/12 10:38:11;;;;;;;8.90;4.50;;;8.10;93.20;;;;;;4067848;29;20450;-79
2023/12/12 10:40:16;;;;;;;9.32;4.18;;;8.00;93.10;;;;;;4070405;29;20411;-79
2023/12/12 10:42:17;;;;;;;10.77;4.90;;;8.00;93.30;;;;;;4071285;29;20044;-77
2023/12/12 10:44:21;;;;;;;10.75;5.25;;;7.80;92.90;;;;;;4071312;29;20312;-78
2023/12/12 10:46:26;;;;;;;13.30;5.70;;;7.70;93.00;;;;;;4070514;29;20418;-78
2023/12/12 10:48:28;;;;;;;12.23;5.87;;;7.50;93.20;;;;;;4071191;29;20052;-77
2023/12/12 10:50:34;;;;;;;11.82;6.07;;;7.40;93.80;;;;;;4071317;29;20131;-79
2023/12/12 10:52:35;;;;;;;11.90;6.05;;;7.40;94.00;;;;;;4068878;29;20080;-76
2023/12/12 10:54:39;;;;;;;9.43;5.47;;;7.40;94.50;;;;;;4069614;29;20056;-79
2023/12/12 10:56:44;;;;;;;7.53;3.80;;;7.50;95.20;;;;;;4070231;29;20131;-76
2023/12/12 10:58:48;;;;;;;5.63;2.83;;;7.70;96.30;;;;;;4071088;29;20080;-77
2023/12/12 11:00:49;;;;;;;5.22;1.95;;;7.90;96.50;;;;;;4070035;29;20063;-77
2023/12/12 11:02:51;;;;;;;5.10;1.70;;;8.10;97.10;;;;;;4072836;29;20059;-78
2023/12/12 11:04:55;;;;;;;4.72;1.20;;;8.30;96.90;;;;;;4073222;29;20391;-79
2023/12/12 11:06:58;;;;;;;2.50;1.00;;;8.50;97.00;;;;;;4073179;29;20123;-79
2023/12/12 11:09:00;;;;;;;2.95;1.00;;;8.60;96.90;;;;;;4071726;29;20060;-78
2023/12/12 11:11:09;;;;;;;2.47;0.90;;;8.70;96.70;;;;;;4070526;29;20060;-78
2023/12/12 11:13:13;;;;;;;2.50;0.82;;;8.80;96.80;;;;;;4069698;29;20056;-78
2023/12/12 11:15:17;;;;;;;2.63;1.00;;;8.90;96.60;;;;;;4069695;29;20088;-77
2023/12/12 11:17:20;;;;;;;1.88;0.60;;;9.00;96.50;;;;;;4070313;29;20407;-77
2023/12/12 11:19:26;;;;;;;2.63;0.65;;;9.10;96.40;;;;;;4069617;29;20077;-78
2023/12/12 11:21:49;;;;;;;2.05;0.88;;;9.20;96.40;;;;;;4069643;29;20070;-78
2023/12/12 11:23:53;;;;;;;1.80;0.68;;;9.20;96.20;;;;;;4065905;29;20048;-76
2023/12/12 11:25:56;;;;;;;1.58;0.60;;;9.20;96.20;;;;;;4068608;29;20130;-79
2023/12/12 11:27:59;;;;;;;1.38;0.60;;;9.30;96.20;;;;;;4068686;29;20056;-79
2023/12/12 11:30:01;;;;;;;1.70;0.70;;;9.40;96.10;;;;;;4068390;29;20076;-79
2023/12/12 11:32:05;;;;;;;2.10;0.70;;;9.40;95.90;;;;;;4068573;29;20106;-79
2023/12/12 11:34:09;;;;;;;1.55;0.50;;;9.40;95.80;;;;;;4066355;29;20048;-79
2023/12/12 11:36:25;;;;;;;10.90;4.75;;;9.50;95.70;;;;;;4068389;29;20434;-79
2023/12/12 11:38:31;;;;;;;17.92;8.85;;;9.60;95.70;;;;;;4068593;29;20485;-79
2023/12/12 11:40:34;;;;;;;;;;;9.60;95.50;;;;;;4068797;29;20477;-78
2023/12/12 11:42:35;;;;;;;6.43;2.80;;;9.60;95.40;;;;;;4069058;29;19959;-78
2023/12/12 11:44:42;;;;;;;3.72;1.58;;;9.60;95.30;;;;;;4069139;29;20087;-76
2023/12/12 11:46:45;;;;;;;2.78;1.20;;;9.70;95.20;;;;;;4069456;29;20111;-80
2023/12/12 11:48:47;;;;;;;6.30;3.40;;;9.80;95.10;;;;;;4071479;29;20120;-79
2023/12/12 11:50:49;;;;;;;12.38;5.35;;;9.80;95.00;;;;;;4069261;29;20056;-79
2023/12/12 11:52:51;;;;;;;26.05;13.48;;;9.80;95.00;;;;;;4069191;29;20063;-79
2023/12/12 11:54:54;;;;;;;19.92;9.80;;;9.90;95.00;;;;;;4068938;29;20107;-81
2023/12/12 11:56:57;;;;;;;7.47;3.47;;;9.90;94.90;;;;;;4068601;29;20135;-79
2023/12/12 11:59:00;;;;;;;2.95;1.02;;;9.90;94.80;;;;;;4068289;29;20549;-77
2023/12/12 12:01:02;;;;;;;1.33;0.50;;;10.00;94.70;;;;;;4067920;29;20068;-79
2023/12/12 12:03:08;;;;;;;1.33;0.43;;;10.00;94.70;;;;;;4068116;29;20055;-77
2023/12/12 12:05:10;;;;;;;1.05;0.40;;;10.00;94.60;;;;;;4067350;29;20358;-78
2023/12/12 12:07:12;;;;;;;1.50;0.40;;;10.00;94.60;;;;;;4067532;29;20060;-80
2023/12/12 12:09:15;;;;;;;1.95;0.60;;;10.10;94.50;;;;;;4068333;29;20048;-78
2023/12/12 12:11:17;;;;;;;1.67;0.50;;;10.00;94.50;;;;;;4067755;29;20405;-78
2023/12/12 12:13:19;;;;;;;2.13;0.50;;;10.10;94.40;;;;;;4067994;29;20056;-78
2023/12/12 12:15:21;;;;;;;2.90;0.63;;;10.10;94.20;;;;;;4067722;29;20060;-78
2023/12/12 12:17:22;;;;;;;1.48;0.40;;;10.10;94.00;;;;;;4067888;29;20603;-76
2023/12/12 12:19:33;;;;;;;1.02;0.40;;;10.10;94.00;;;;;;4067622;29;20056;-77
2023/12/12 12:21:35;;;;;;;0.73;0.40;;;10.10;94.10;;;;;;4067914;29;20055;-75
2023/12/12 12:23:38;;;;;;;1.65;0.60;;;10.10;94.10;;;;;;4067675;29;20509;-74
2023/12/12 12:25:39;;;;;;;1.80;0.50;;;10.20;94.10;;;;;;4068080;29;20048;-76
2023/12/12 12:27:52;;;;;;;1.52;0.50;;;10.20;94.00;;;;;;4067907;29;20470;-76
2023/12/12 12:29:59;;;;;;;1.38;0.50;;;10.20;94.10;;;;;;4068307;29;20466;-78
2023/12/12 12:32:11;;;;;;;1.75;0.75;;;10.20;94.00;;;;;;4067677;29;20462;-76
2023/12/12 12:34:23;;;;;;;3.35;0.85;;;10.30;94.40;;;;;;4065964;29;20358;-78
2023/12/12 12:36:38;;;;;;;5.15;1.80;;;10.50;94.90;;;;;;4064162;29;20091;-78
2023/12/12 12:38:41;;;;;;;6.00;2.40;;;10.60;94.30;;;;;;4058957;29;20119;-78
2023/12/12 12:40:42;;;;;;;15.38;8.13;;;10.60;94.10;;;;;;4067676;29;20353;-79
2023/12/12 12:42:43;;;;;;;8.45;4.15;;;10.60;93.70;;;;;;4067366;29;20151;-78
2023/12/12 12:44:45;;;;;;;6.85;2.95;;;10.70;93.50;;;;;;4067348;29;20063;-78
2023/12/12 12:46:51;;;;;;;4.93;2.20;;;10.60;93.30;;;;;;4066802;29;20048;-79
2023/12/12 12:48:53;;;;;;;5.15;2.00;;;10.60;93.30;;;;;;4067323;29;20059;-79
2023/12/12 12:50:55;;;;;;;4.47;1.40;;;10.60;93.30;;;;;;4067016;29;20056;-76
2023/12/12 12:52:58;;;;;;;3.22;0.95;;;10.60;93.40;;;;;;4067159;29;20059;-77
2023/12/12 12:55:00;;;;;;;3.25;1.23;;;10.60;93.30;;;;;;4067070;29;20063;-80
2023/12/12 12:57:03;;;;;;;2.97;0.80;;;10.60;93.20;;;;;;4067010;29;20582;-77
2023/12/12 12:59:04;;;;;;;2.83;0.88;;;10.70;93.20;;;;;;4066545;29;20281;-78
2023/12/12 13:01:06;;;;;;;2.08;0.90;;;10.60;93.20;;;;;;4066902;29;20119;-80
2023/12/12 13:03:07;;;;;;;3.60;1.60;;;10.70;93.30;;;;;;4066634;29;20095;-79
2023/12/12 13:05:09;;;;;;;3.10;1.23;;;10.70;93.20;;;;;;4066581;29;20060;-78
2023/12/12 13:07:11;;;;;;;2.42;0.80;;;10.70;93.10;;;;;;4059292;29;20066;-79
2023/12/12 13:09:17;;;;;;;9.25;4.35;;;10.60;93.10;;;;;;4066806;29;20142;-79
2023/12/12 13:11:19;;;;;;;3.53;0.98;;;10.60;93.10;;;;;;4066550;29;20115;-77
2023/12/12 13:13:21;;;;;;;2.58;1.13;;;10.60;93.00;;;;;;4066352;29;20135;-79
2023/12/12 13:15:23;;;;;;;3.80;1.75;;;10.70;93.00;;;;;;4066289;29;20044;-78
2023/12/12 13:17:25;;;;;;;3.80;1.35;;;10.70;92.70;;;;;;4065178;29;20056;-78
2023/12/12 13:19:27;;;;;;;3.25;1.45;;;10.70;92.90;;;;;;4067030;29;20048;-79
2023/12/12 13:21:29;;;;;;;1.60;0.60;;;10.70;92.90;;;;;;4066421;29;20458;-78
2023/12/12 13:23:31;;;;;;;1.92;0.80;;;10.70;92.80;;;;;;4066304;29;20471;-77
2023/12/12 13:25:33;;;;;;;1.00;0.40;;;10.80;92.80;;;;;;4067060;29;20048;-78
2023/12/12 13:27:35;;;;;;;0.82;0.40;;;10.80;92.70;;;;;;4067000;29;20063;-77
2023/12/12 13:29:37;;;;;;;1.73;0.50;;;10.80;92.60;;;;;;4067146;29;20493;-77
2023/12/12 13:31:39;;;;;;;1.60;0.52;;;10.80;92.40;;;;;;4067106;29;20060;-77
2023/12/12 13:33:40;;;;;;;1.45;0.50;;;10.80;92.80;;;;;;4066993;29;20465;-80
2023/12/12 13:35:41;;;;;;;1.77;0.52;;;10.80;92.50;;;;;;4064680;29;20056;-79
2023/12/12 13:37:44;;;;;;;1.38;0.60;;;10.80;92.40;;;;;;4066865;29;20463;-78
2023/12/12 13:39:45;;;;;;;1.20;0.40;;;10.80;92.50;;;;;;4067046;29;20143;-78
2023/12/12 13:41:49;;;;;;;2.55;0.90;;;10.90;92.60;;;;;;4066416;29;20108;-79
2023/12/12 13:43:52;;;;;;;2.33;1.20;;;10.90;92.70;;;;;;4067112;29;20135;-80
2023/12/12 13:45:53;;;;;;;3.15;1.20;;;10.80;93.60;;;;;;4066711;29;20108;-79
2023/12/12 13:47:55;;;;;;;1.98;0.93;;;10.80;93.60;;;;;;4066841;29;20060;-77
2023/12/12 13:49:57;;;;;;;2.10;1.00;;;10.80;93.40;;;;;;4067325;29;20107;-76
2023/12/12 13:51:58;;;;;;;3.63;1.40;;;10.80;93.50;;;;;;4066807;29;20068;-77
2023/12/12 13:54:00;;;;;;;5.72;3.00;;;10.80;93.90;;;;;;4066918;29;20111;-77
2023/12/12 13:56:03;;;;;;;8.57;5.30;;;10.70;93.90;;;;;;4066811;29;20052;-79
2023/12/12 13:58:07;;;;;;;8.75;5.20;;;10.50;93.10;;;;;;4066570;29;20048;-78
2023/12/12 14:00:09;;;;;;;8.90;5.35;;;10.40;92.90;;;;;;4066831;29;20056;-78
2023/12/12 14:02:11;;;;;;;8.65;3.78;;;10.00;94.00;;;;;;4066445;29;20060;-78
2023/12/12 14:04:13;;;;;;;5.50;3.08;;;10.00;94.40;;;;;;4066863;29;20850;-79
2023/12/12 14:06:15;;;;;;;3.97;2.20;;;10.10;94.20;;;;;;4066720;29;20052;-79
2023/12/12 14:08:16;;;;;;;5.80;2.20;;;10.10;94.30;;;;;;4066473;29;20063;-78
2023/12/12 14:10:19;;;;;;;6.97;2.80;;;10.10;94.30;;;;;;4066302;29;20074;-78
2023/12/12 14:12:21;;;;;;;5.45;2.15;;;10.10;94.70;;;;;;4066609;29;20067;-77
2023/12/12 14:14:24;;;;;;;6.55;2.10;;;10.20;94.60;;;;;;4067045;29;20443;-78
2023/12/12 14:16:26;;;;;;;4.18;2.08;;;10.20;94.60;;;;;;4066730;29;20502;-77
2023/12/12 14:18:29;;;;;;;4.18;1.80;;;10.20;94.60;;;;;;4066891;29;20052;-79
2023/12/12 14:20:30;;;;;;;3.95;1.80;;;10.20;94.70;;;;;;4066656;29;20048;-79
2023/12/12 14:22:32;;;;;;;5.57;1.80;;;10.20;94.70;;;;;;4066545;29;20607;-78
2023/12/12 14:24:34;;;;;;;9.15;4.82;;;10.20;94.60;;;;;;4066881;29;20450;-78
2023/12/12 14:26:35;;;;;;;46.65;25.15;;;10.30;94.40;;;;;;4067056;29;20052;-77
2023/12/12 14:28:37;;;;;;;32.35;16.73;;;10.30;94.40;;;;;;4068269;29;20092;-79
2023/12/12 14:30:40;;;;;;;23.95;11.52;;;10.40;94.30;;;;;;4069669;29;20083;-78
2023/12/12 14:32:41;;;;;;;11.18;6.10;;;10.40;94.40;;;;;;4069957;29;20048;-79
2023/12/12 14:34:44;;;;;;;7.70;3.55;;;10.40;94.50;;;;;;4067388;29;20148;-78
2023/12/12 14:36:46;;;;;;;6.78;3.17;;;10.30;94.50;;;;;;4069906;29;20055;-75
2023/12/12 14:38:47;;;;;;;5.05;2.10;;;10.40;94.50;;;;;;4070230;29;20060;-78
2023/12/12 14:40:48;;;;;;;4.80;2.30;;;10.30;94.50;;;;;;4069151;29;20498;-77
2023/12/12 14:42:49;;;;;;;5.00;2.20;;;10.40;94.50;;;;;;4069489;29;20380;-79
2023/12/12 14:44:51;;;;;;;5.38;2.08;;;10.30;94.50;;;;;;4069866;29;20139;-78
2023/12/12 14:46:54;;;;;;;4.57;2.10;;;10.30;94.80;;;;;;4069272;29;20056;-78
2023/12/12 14:48:56;;;;;;;3.80;2.13;;;10.30;94.50;;;;;;4069214;29;20064;-79
2023/12/12 14:51:00;;;;;;;6.00;2.50;;;10.30;94.50;;;;;;4070218;29;20490;-78
2023/12/12 14:53:02;;;;;;;17.40;10.70;;;10.30;94.50;;;;;;4071064;29;20059;-79
2023/12/12 14:55:06;;;;;;;36.20;20.45;;;10.30;94.50;;;;;;4069076;29;20056;-78
2023/12/12 14:57:08;;;;;;;32.20;17.52;;;10.30;94.50;;;;;;4064212;29;20084;-79
2023/12/12 14:59:09;;;;;;;38.72;20.15;;;10.30;94.50;;;;;;4068605;29;20052;-77
2023/12/12 15:01:12;;;;;;;11.70;5.97;;;10.30;94.50;;;;;;4068655;29;20147;-77
2023/12/12 15:03:15;;;;;;;4.82;2.30;;;10.30;94.40;;;;;;4069233;29;20056;-80
2023/12/12 15:05:16;;;;;;;3.67;1.63;;;10.30;94.50;;;;;;4069026;29;20111;-77
2023/12/12 15:07:18;;;;;;;4.47;1.40;;;10.30;94.40;;;;;;4068864;29;20052;-79
2023/12/12 15:09:20;;;;;;;3.70;1.75;;;10.30;94.40;;;;;;4068505;29;20462;-79
2023/12/12 15:11:22;;;;;;;4.78;1.83;;;10.30;94.40;;;;;;4068765;29;20099;-79
2023/12/12 15:13:23;;;;;;;3.55;1.60;;;10.30;94.50;;;;;;4068224;29;20052;-79
2023/12/12 15:15:25;;;;;;;3.75;2.00;;;10.20;94.50;;;;;;4068952;29;20082;-78
2023/12/12 15:17:26;;;;;;;3.97;2.00;;;10.30;94.60;;;;;;4068895;29;20104;-78
2023/12/12 15:19:29;;;;;;;5.40;1.63;;;10.20;94.60;;;;;;4068632;29;20099;-76
2023/12/12 15:21:31;;;;;;;3.45;1.50;;;10.20;94.50;;;;;;4068771;29;20056;-79
2023/12/12 15:23:33;;;;;;;3.35;1.48;;;10.20;94.60;;;;;;4068513;29;20107;-78
2023/12/12 15:25:35;;;;;;;3.28;1.45;;;10.20;94.50;;;;;;4068561;29;20060;-80
2023/12/12 15:27:37;;;;;;;2.80;1.13;;;10.30;94.50;;;;;;4068756;29;20099;-78
2023/12/12 15:29:39;;;;;;;3.13;1.40;;;10.20;94.40;;;;;;4068842;29;20540;-78
2023/12/12 15:31:41;;;;;;;11.90;6.03;;;10.20;94.40;;;;;;4068504;29;20067;-77
2023/12/12 15:33:43;;;;;;;6.97;3.55;;;10.20;94.40;;;;;;4068394;29;20107;-75
2023/12/12 15:35:46;;;;;;;6.50;3.22;;;10.20;94.40;;;;;;4065547;29;20051;-78
2023/12/12 15:37:49;;;;;;;4.45;2.05;;;10.30;94.40;;;;;;4068400;29;20048;-76
2023/12/12 15:39:51;;;;;;;6.60;2.10;;;10.30;94.40;;;;;;4067109;29;20480;-76
2023/12/12 15:41:53;;;;;;;4.13;1.45;;;10.30;94.40;;;;;;4068274;29;20079;-78
2023/12/12 15:43:55;;;;;;;3.83;1.33;;;10.30;94.50;;;;;;4068402;29;20052;-78
2023/12/12 15:45:57;;;;;;;3.78;1.42;;;10.30;94.60;;;;;;4067727;29;20079;-79
2023/12/12 15:47:58;;;;;;;2.85;1.10;;;10.30;94.70;;;;;;4067070;29;20044;-76
2023/12/12 15:50:00;;;;;;;2.35;1.10;;;10.30;94.80;;;;;;4067577;29;20048;-78
2023/12/12 15:52:04;;;;;;;2.97;1.00;;;10.30;94.90;;;;;;4066834;29;20111;-78
2023/12/12 15:54:06;;;;;;;4.68;1.98;;;10.30;95.00;;;;;;4068190;29;20550;-77
2023/12/12 15:56:10;;;;;;;3.83;1.48;;;10.40;95.00;;;;;;4067445;29;20143;-81
2023/12/12 15:58:12;;;;;;;3.10;1.33;;;10.40;95.10;;;;;;4066976;29;20320;-75
2023/12/12 16:00:13;;;;;;;4.13;1.92;;;10.40;95.10;;;;;;4068276;29;20060;-79
2023/12/12 16:02:15;;;;;;;3.25;1.50;;;10.40;95.10;;;;;;4068092;29;20593;-79
2023/12/12 16:04:17;;;;;;;2.70;1.30;;;10.40;95.10;;;;;;4068007;29;20099;-79
2023/12/12 16:06:19;;;;;;;2.88;1.40;;;10.40;95.10;;;;;;4067642;29;20526;-77
2023/12/12 16:08:24;;;;;;;3.05;1.55;;;10.40;95.00;;;;;;4068423;29;20056;-79
2023/12/12 16:10:26;;;;;;;3.27;1.70;;;10.50;95.10;;;;;;4070400;29;20052;-79
2023/12/12 16:12:28;;;;;;;4.60;1.40;;;10.50;95.10;;;;;;4067823;29;20667;-78
2023/12/12 16:14:30;;;;;;;3.40;1.67;;;10.50;95.00;;;;;;4067872;29;20051;-78
2023/12/12 16:16:32;;;;;;;3.65;1.50;;;10.50;95.10;;;;;;4072620;29;20548;-77
2023/12/12 16:18:34;;;;;;;3.45;1.45;;;10.60;95.00;;;;;;4083907;29;20094;-78
2023/12/12 16:20:36;;;;;;;3.33;1.40;;;10.50;95.00;;;;;;4084221;29;20052;-78
2023/12/12 16:22:37;;;;;;;3.05;1.40;;;10.60;95.00;;;;;;4083613;29;20048;-77
2023/12/12 16:24:40;;;;;;;3.92;1.55;;;10.60;95.10;;;;;;4083755;29;20131;-80
2023/12/12 16:26:42;;;;;;;24.40;12.23;;;10.60;95.00;;;;;;4071200;29;20454;-80
2023/12/12 16:28:43;;;;;;;9.52;4.72;;;10.60;94.90;;;;;;4083755;29;20450;-80
2023/12/12 16:30:44;;;;;;;4.53;2.25;;;10.60;95.00;;;;;;4083578;29;20413;-79
2023/12/12 16:32:52;;;;;;;3.95;1.98;;;10.70;95.00;;;;;;4071106;29;20060;-80
2023/12/12 16:34:54;;;;;;;12.32;6.22;;;10.60;95.10;;;;;;4065847;29;20056;-78
2023/12/12 16:36:56;;;;;;;7.00;3.70;;;10.70;95.20;;;;;;4070816;29;20048;-78
2023/12/12 16:38:59;;;;;;;4.45;1.90;;;10.70;95.10;;;;;;4067849;29;20542;-80
2023/12/12 16:41:03;;;;;;;4.18;2.20;;;10.60;95.20;;;;;;4067530;29;20130;-80
2023/12/12 16:43:04;;;;;;;2.70;1.20;;;10.70;95.20;;;;;;4066882;29;20490;-75